Time;durP1;ratioP1;P1;durP2;ratioP2;P2;SDS_P1;SDS_P2;PMS_P1;PMS_P2;Temp;Humidity;BMP_temperature;BMP_pressure;BME280_temperature;BME280_humidity;BME280_pressure;Samples;Min_cycle;Max_cycle;Signal;HPM_P1;HPM_P2
2021/08/12 00:02:05;;;;;;;13.60;12.13;;;;;;;20.24;63.58;101663.66;5059810;28;20196;-77
2021/08/12 00:04:31;;;;;;;14.23;11.20;;;;;;;20.20;64.31;101659.28;5058855;28;20237;-78
2021/08/12 00:06:57;;;;;;;13.00;11.33;;;;;;;20.11;64.49;101662.94;5058584;28;20177;-78
2021/08/12 00:09:22;;;;;;;12.27;11.07;;;;;;;19.77;65.87;101666.06;5059295;28;20379;-75
2021/08/12 00:11:47;;;;;;;12.20;11.00;;;;;;;19.79;66.10;101666.03;5070230;28;20212;-77
2021/08/12 00:14:13;;;;;;;12.20;10.90;;;;;;;19.78;66.82;101659.00;5058181;28;20543;-76
2021/08/12 00:16:38;;;;;;;12.40;11.20;;;;;;;19.39;68.61;101650.69;5058388;28;20235;-76
2021/08/12 00:19:11;;;;;;;12.17;10.93;;;;;;;19.48;68.33;101646.19;5058543;28;20227;-76
2021/08/12 00:21:36;;;;;;;12.10;10.93;;;;;;;19.61;67.54;101646.00;5059790;28;20185;-75
2021/08/12 00:24:01;;;;;;;12.10;11.00;;;;;;;19.21;68.05;101644.72;5057965;28;20456;-76
2021/08/12 00:26:27;;;;;;;14.53;11.20;;;;;;;19.52;66.98;101644.34;5060114;28;20243;-78
2021/08/12 00:28:52;;;;;;;14.23;11.10;;;;;;;19.36;67.69;101646.31;5058382;28;20165;-76
2021/08/12 00:31:18;;;;;;;18.30;11.77;;;;;;;19.42;67.43;101651.53;5069785;28;20208;-76
2021/08/12 00:33:43;;;;;;;11.87;10.83;;;;;;;19.37;67.09;101657.78;5078910;28;20538;-76
2021/08/12 00:36:08;;;;;;;12.30;11.00;;;;;;;19.45;67.04;101646.19;5080452;28;20320;-77
2021/08/12 00:38:33;;;;;;;12.70;11.13;;;;;;;19.37;67.50;101647.19;5063487;28;20187;-78
2021/08/12 00:40:59;;;;;;;12.70;11.40;;;;;;;19.18;67.53;101648.28;5061944;28;20205;-77
2021/08/12 00:43:24;;;;;;;12.90;11.57;;;;;;;19.00;68.51;101653.78;5061887;28;20204;-77
2021/08/12 00:45:49;;;;;;;11.80;10.63;;;;;;;18.96;69.01;101646.78;5074934;28;20547;-76
2021/08/12 00:48:15;;;;;;;11.73;10.60;;;;;;;19.22;68.23;101656.19;5064228;28;20185;-77
2021/08/12 00:50:41;;;;;;;12.40;11.40;;;;;;;19.47;67.39;101659.41;5062078;28;20554;-76
2021/08/12 00:53:07;;;;;;;12.60;11.27;;;;;;;19.24;68.09;101660.56;5061775;28;20459;-76
2021/08/12 00:55:32;;;;;;;16.67;11.53;;;;;;;19.38;67.48;101656.88;5062360;28;20458;-77
2021/08/12 00:57:58;;;;;;;12.60;11.30;;;;;;;19.21;68.23;101652.66;5063302;28;20181;-77
2021/08/12 01:00:23;;;;;;;11.57;10.50;;;;;;;18.88;69.25;101654.78;5061915;28;20169;-76
2021/08/12 01:02:48;;;;;;;12.60;11.37;;;;;;;18.96;68.31;101650.31;5078611;28;20538;-77
2021/08/12 01:05:14;;;;;;;11.37;10.33;;;;;;;19.14;67.79;101653.63;5081728;28;20169;-77
2021/08/12 01:07:42;;;;;;;11.70;10.60;;;;;;;19.41;66.99;101655.06;5076682;28;20566;-77
2021/08/12 01:10:37;;;;;;;12.20;11.20;;;;;;;18.80;68.29;101646.91;5066753;28;20177;-78
2021/08/12 01:13:28;;;;;;;12.03;10.80;;;;;;;18.91;68.17;101641.53;5061778;28;20475;-77
2021/08/12 01:15:56;;;;;;;12.60;11.50;;;;;;;18.74;68.66;101640.81;5062760;28;20488;-75
2021/08/12 01:18:33;;;;;;;11.80;10.70;;;;;;;18.53;68.60;101645.41;5061465;28;20684;-76
2021/08/12 01:21:29;;;;;;;11.73;10.73;;;;;;;18.90;67.42;101638.91;5060740;28;20713;-76
2021/08/12 01:23:59;;;;;;;12.33;10.57;;;;;;;19.08;66.08;101640.47;5061364;28;20456;-77
2021/08/12 01:26:24;;;;;;;12.83;11.67;;;;;;;18.72;67.37;101642.59;5069160;28;20425;-76
2021/08/12 01:28:50;;;;;;;11.90;10.87;;;;;;;19.10;66.31;101644.84;5061932;28;20447;-76
2021/08/12 01:31:34;;;;;;;11.37;10.47;;;;;;;18.95;66.73;101645.91;5063849;28;20231;-77
2021/08/12 01:34:15;;;;;;;12.53;11.43;;;;;;;19.12;66.34;101647.47;5065595;28;20436;-76
2021/08/12 01:36:42;;;;;;;11.80;10.80;;;;;;;18.38;69.04;101648.19;5067212;28;20480;-75
2021/08/12 01:39:10;;;;;;;13.00;11.97;;;;;;;18.42;69.62;101650.78;5086086;28;20456;-74
2021/08/12 01:41:36;;;;;;;12.63;11.53;;;;;;;18.60;69.21;101651.50;5083189;28;20400;-77
2021/08/12 01:44:01;;;;;;;12.93;11.83;;;;;;;18.68;68.82;101647.03;5083730;28;20422;-76
2021/08/12 01:46:50;;;;;;;14.83;13.30;;;;;;;18.55;69.71;101653.31;5075017;28;20246;-77
2021/08/12 01:49:15;;;;;;;15.83;12.70;;;;;;;18.24;70.51;101656.19;5065631;28;20185;-76
2021/08/12 01:51:41;;;;;;;14.10;12.80;;;;;;;18.52;69.67;101646.28;5063635;28;20450;-76
2021/08/12 01:54:08;;;;;;;14.10;12.90;;;;;;;18.66;69.19;101643.53;5060742;28;20268;-77
2021/08/12 01:56:37;;;;;;;13.23;12.03;;;;;;;18.58;69.19;101648.88;5047177;28;20402;-76
2021/08/12 01:59:03;;;;;;;13.73;12.50;;;;;;;18.63;69.59;101649.72;5059940;28;20504;-77
2021/08/12 02:01:28;;;;;;;13.40;12.30;;;;;;;18.22;71.06;101648.28;5060894;28;20444;-77
2021/08/12 02:03:58;;;;;;;14.10;13.00;;;;;;;18.48;70.34;101641.91;5060242;28;20413;-77
2021/08/12 02:06:24;;;;;;;16.87;12.57;;;;;;;18.22;71.66;101647.44;5066320;28;20762;-77
2021/08/12 02:08:50;;;;;;;13.43;12.23;;;;;;;18.08;72.48;101644.91;5082380;28;20428;-76
2021/08/12 02:11:16;;;;;;;13.70;12.50;;;;;;;18.06;72.12;101639.59;5069940;28;20431;-77
2021/08/12 02:13:41;;;;;;;13.27;12.17;;;;;;;18.15;71.86;101636.91;5080148;28;20419;-76
2021/08/12 02:16:09;;;;;;;13.63;12.33;;;;;;;18.24;71.47;101640.38;5078957;28;20423;-77
2021/08/12 02:18:38;;;;;;;13.73;12.63;;;;;;;18.47;70.15;101633.13;5080846;28;20215;-76
2021/08/12 02:21:09;;;;;;;13.43;12.13;;;;;;;18.28;70.14;101642.97;5071773;28;20513;-76
2021/08/12 02:23:37;;;;;;;13.10;11.70;;;;;;;18.62;69.40;101639.19;5059604;28;20769;-76
2021/08/12 02:26:10;;;;;;;12.77;11.77;;;;;;;18.62;69.32;101639.19;5058873;28;20394;-77
2021/08/12 02:28:36;;;;;;;13.67;12.47;;;;;;;17.78;72.40;101641.50;5059106;28;20681;-77
2021/08/12 02:31:03;;;;;;;13.17;11.87;;;;;;;17.91;71.54;101639.69;5077944;28;20431;-77
2021/08/12 02:33:33;;;;;;;13.07;11.83;;;;;;;18.46;70.15;101635.81;5060708;28;20274;-77
2021/08/12 02:35:59;;;;;;;13.17;11.50;;;;;;;18.60;69.34;101638.31;5060456;28;20416;-77
2021/08/12 02:38:25;;;;;;;13.53;12.40;;;;;;;18.29;70.19;101642.09;5063483;28;20418;-78
2021/08/12 02:40:52;;;;;;;13.03;11.83;;;;;;;18.31;69.54;101637.66;5058990;28;20181;-77
2021/08/12 02:43:19;;;;;;;13.73;12.63;;;;;;;18.30;69.62;101635.03;5066105;28;20418;-76
2021/08/12 02:45:44;;;;;;;13.53;12.30;;;;;;;18.42;69.36;101645.50;5059106;28;20383;-75
2021/08/12 02:48:10;;;;;;;13.07;11.80;;;;;;;18.14;70.39;101636.94;5058407;28;20474;-75
2021/08/12 02:50:38;;;;;;;12.33;11.23;;;;;;;18.57;68.96;101630.41;5059497;28;20440;-75
2021/08/12 02:53:03;;;;;;;12.07;10.87;;;;;;;18.50;69.19;101630.47;5061997;28;20567;-75
2021/08/12 02:55:29;;;;;;;12.57;11.37;;;;;;;18.79;67.78;101617.88;5059828;28;20507;-76
2021/08/12 02:57:54;;;;;;;12.43;11.17;;;;;;;18.42;68.46;101619.09;5073425;28;20185;-77
2021/08/12 03:00:20;;;;;;;11.30;10.13;;;;;;;18.37;68.03;101627.94;5079814;28;20177;-76
2021/08/12 03:02:47;;;;;;;11.43;10.50;;;;;;;18.51;67.91;101623.44;5068379;28;20185;-76
2021/08/12 03:05:14;;;;;;;11.60;10.60;;;;;;;18.10;68.98;101625.50;5060184;28;20446;-76
2021/08/12 03:07:42;;;;;;;11.33;10.43;;;;;;;18.46;67.90;101620.81;5072998;28;20491;-77
2021/08/12 03:10:10;;;;;;;11.63;10.63;;;;;;;18.45;67.72;101629.63;5078614;28;20417;-76
2021/08/12 03:12:35;;;;;;;11.60;10.60;;;;;;;18.21;68.49;101632.47;5073626;28;20476;-77
2021/08/12 03:15:00;;;;;;;11.50;10.50;;;;;;;18.21;67.75;101629.84;5062627;28;20420;-76
2021/08/12 03:17:26;;;;;;;11.70;10.63;;;;;;;18.28;67.65;101631.53;5059273;28;20213;-75
2021/08/12 03:19:51;;;;;;;11.63;10.63;;;;;;;18.25;67.83;101636.84;5058589;28;20174;-77
2021/08/12 03:22:17;;;;;;;11.10;10.20;;;;;;;18.40;66.98;101636.72;5059329;28;20497;-77
2021/08/12 03:24:45;;;;;;;12.07;11.10;;;;;;;18.46;66.56;101627.88;5058680;28;20298;-76
2021/08/12 03:27:12;;;;;;;11.93;10.70;;;;;;;17.99;67.99;101637.91;5076125;28;20205;-76
2021/08/12 03:29:40;;;;;;;12.20;11.07;;;;;;;18.15;67.91;101636.91;5079724;28;20773;-76
2021/08/12 03:32:06;;;;;;;11.23;10.20;;;;;;;18.01;68.28;101642.28;5076792;28;20462;-77
2021/08/12 03:34:31;;;;;;;11.73;10.63;;;;;;;17.77;68.45;101651.19;5078831;28;20389;-77
2021/08/12 03:36:57;;;;;;;11.37;10.37;;;;;;;17.94;68.53;101651.16;5076924;28;20189;-77
2021/08/12 03:39:22;;;;;;;12.27;11.17;;;;;;;18.16;67.63;101643.94;5079127;28;20172;-77
2021/08/12 03:41:48;;;;;;;11.80;10.63;;;;;;;18.07;67.20;101648.41;5078831;28;20185;-76
2021/08/12 03:44:13;;;;;;;11.63;10.43;;;;;;;17.94;67.72;101660.81;5079095;28;20160;-77
2021/08/12 03:46:38;;;;;;;11.20;10.13;;;;;;;18.15;67.45;101644.81;5063779;28;20193;-76
2021/08/12 03:49:04;;;;;;;11.97;10.87;;;;;;;18.32;66.80;101649.09;5058820;28;20236;-76
2021/08/12 03:51:30;;;;;;;12.20;11.00;;;;;;;18.08;66.91;101647.53;5059075;28;20430;-75
2021/08/12 03:53:56;;;;;;;11.33;10.33;;;;;;;17.94;67.50;101644.97;5058530;28;20272;-77
2021/08/12 03:56:21;;;;;;;11.60;10.40;;;;;;;18.17;67.01;101652.72;5059772;28;20564;-75
2021/08/12 03:58:46;;;;;;;11.30;10.20;;;;;;;18.13;67.09;101651.91;5065754;28;20421;-76
2021/08/12 04:01:12;;;;;;;12.20;11.03;;;;;;;18.00;67.68;101655.50;5065913;28;20193;-75
2021/08/12 04:03:37;;;;;;;11.43;10.30;;;;;;;18.16;67.35;101657.13;5058512;28;20181;-76
2021/08/12 04:06:02;;;;;;;10.90;10.00;;;;;;;18.34;66.46;101652.59;5060506;28;20220;-77
2021/08/12 04:08:28;;;;;;;11.40;10.40;;;;;;;18.13;67.10;101649.25;5057502;28;20212;-75
2021/08/12 04:10:54;;;;;;;11.37;10.37;;;;;;;18.17;67.03;101652.72;5067249;28;20169;-76
2021/08/12 04:13:20;;;;;;;10.83;10.03;;;;;;;18.42;65.97;101655.19;5070104;28;20461;-76
2021/08/12 04:15:45;;;;;;;11.53;10.37;;;;;;;18.33;66.21;101650.84;5078555;28;20215;-78
2021/08/12 04:18:10;;;;;;;11.63;10.73;;;;;;;18.40;66.13;101654.31;5077668;28;20173;-77
2021/08/12 04:20:35;;;;;;;10.90;9.90;;;;;;;18.31;66.70;101657.94;5077805;28;20173;-77
2021/08/12 04:23:01;;;;;;;10.77;9.83;;;;;;;18.58;65.43;101650.63;5070789;28;20225;-77
2021/08/12 04:25:26;;;;;;;10.90;10.00;;;;;;;18.68;65.31;101645.25;5061843;28;20189;-76
2021/08/12 04:27:51;;;;;;;10.70;9.80;;;;;;;18.48;65.50;101650.75;5069542;28;20169;-76
2021/08/12 04:30:17;;;;;;;10.37;9.30;;;;;;;18.68;65.06;101642.59;5058190;28;20195;-76
2021/08/12 04:32:42;;;;;;;10.40;9.57;;;;;;;18.51;64.78;101647.19;5058001;28;20227;-76
2021/08/12 04:35:08;;;;;;;11.17;10.03;;;;;;;18.62;64.83;101647.97;5058362;28;20406;-77
2021/08/12 04:37:42;;;;;;;10.87;9.93;;;;;;;18.99;63.06;101641.47;5058398;28;20185;-77
2021/08/12 04:40:08;;;;;;;10.43;9.37;;;;;;;18.85;63.83;101633.66;5058072;28;20435;-76
2021/08/12 04:42:35;;;;;;;10.03;9.20;;;;;;;18.87;63.64;101629.22;5057522;28;20444;-76
2021/08/12 04:45:00;;;;;;;9.97;9.17;;;;;;;19.03;63.42;101632.59;5058101;28;20414;-76
2021/08/12 04:47:26;;;;;;;10.60;9.60;;;;;;;19.85;60.40;101634.25;5061755;28;20439;-77
2021/08/12 04:49:51;;;;;;;10.20;9.30;;;;;;;20.41;58.15;101634.22;5059934;28;20170;-76
2021/08/12 04:52:17;;;;;;;9.20;8.40;;;;;;;20.84;57.19;101630.81;5063819;28;20224;-76
2021/08/12 04:54:42;;;;;;;8.77;8.10;;;;;;;20.84;57.52;101633.47;5069273;28;20204;-77
2021/08/12 04:57:07;;;;;;;9.03;8.23;;;;;;;21.54;54.98;101634.75;5077695;28;20208;-76
2021/08/12 04:59:33;;;;;;;9.20;8.30;;;;;;;21.22;55.46;101651.31;5074762;28;20216;-76
2021/08/12 05:01:58;;;;;;;8.77;8.07;;;;;;;20.80;55.75;101638.88;5061670;28;20177;-78
2021/08/12 05:04:24;;;;;;;9.23;8.27;;;;;;;20.79;56.30;101650.38;5060011;28;20470;-79
2021/08/12 05:06:49;;;;;;;9.07;8.37;;;;;;;20.11;58.32;101643.56;5058337;28;20174;-76
2021/08/12 05:09:14;;;;;;;9.50;8.70;;;;;;;19.83;59.21;101652.75;5058578;28;20554;-77
2021/08/12 05:11:41;;;;;;;9.90;9.00;;;;;;;19.85;59.64;101650.97;5059256;28;20169;-78
2021/08/12 05:14:06;;;;;;;9.03;8.33;;;;;;;19.34;61.29;101658.69;5062254;28;20231;-77
2021/08/12 05:16:31;;;;;;;10.47;9.63;;;;;;;19.50;60.61;101646.16;5065203;28;20740;-77
2021/08/12 05:18:56;;;;;;;10.00;9.20;;;;;;;19.79;59.73;101655.44;5061895;28;20177;-77
2021/08/12 05:21:22;;;;;;;10.30;9.50;;;;;;;19.25;61.21;101648.22;5060870;28;20180;-78
2021/08/12 05:23:47;;;;;;;9.83;9.03;;;;;;;19.83;59.89;101652.75;5061106;28;20229;-76
2021/08/12 05:26:12;;;;;;;10.43;9.50;;;;;;;19.70;60.14;101645.88;5060982;28;20588;-76
2021/08/12 05:28:38;;;;;;;10.40;9.60;;;;;;;19.10;62.34;101644.84;5061340;28;20449;-76
2021/08/12 05:31:03;;;;;;;10.53;9.50;;;;;;;19.79;60.21;101642.22;5060853;28;20435;-76
2021/08/12 05:33:29;;;;;;;10.10;9.30;;;;;;;19.25;61.22;101642.94;5074683;28;20212;-76
2021/08/12 05:35:54;;;;;;;11.00;10.00;;;;;;;19.59;60.36;101639.84;5081077;28;20275;-77
2021/08/12 05:38:19;;;;;;;12.43;11.23;;;;;;;19.39;61.12;101635.72;5080393;28;20172;-76
2021/08/12 05:40:45;;;;;;;10.93;9.93;;;;;;;19.26;61.28;101634.13;5080815;28;20173;-77
2021/08/12 05:43:10;;;;;;;11.47;10.40;;;;;;;19.75;59.81;101638.75;5081236;28;20565;-76
2021/08/12 05:45:36;;;;;;;10.60;9.60;;;;;;;20.07;59.01;101633.91;5083140;28;20218;-76
2021/08/12 05:48:01;;;;;;;10.50;9.60;;;;;;;20.11;58.22;101628.53;5088751;28;20458;-75
2021/08/12 05:50:26;;;;;;;10.57;9.47;;;;;;;20.05;58.63;101625.97;5091387;28;20177;-75
2021/08/12 05:52:52;;;;;;;9.77;8.97;;;;;;;20.79;56.09;101629.19;5069786;28;20586;-78
2021/08/12 05:55:17;;;;;;;10.63;9.70;;;;;;;21.11;55.68;101630.34;5076872;28;20212;-76
2021/08/12 05:57:42;;;;;;;9.67;8.77;;;;;;;21.93;52.79;101636.53;5077437;28;20165;-76
2021/08/12 06:00:08;;;;;;;9.33;8.37;;;;;;;22.83;50.29;101622.75;5067293;28;20552;-77
2021/08/12 06:02:33;;;;;;;10.43;9.43;;;;;;;24.73;45.97;101618.66;5080345;28;20424;-77
2021/08/12 06:04:59;;;;;;;9.97;8.37;;;;;;;24.46;46.12;101623.13;5077386;28;20180;-77
2021/08/12 06:07:24;;;;;;;9.53;8.67;;;;;;;25.89;42.84;101609.78;5080297;28;20248;-77
2021/08/12 06:09:49;;;;;;;9.20;8.33;;;;;;;24.94;44.27;101622.34;5077953;28;20184;-77
2021/08/12 06:12:15;;;;;;;9.77;8.40;;;;;;;25.54;43.73;101624.56;5077958;28;20239;-76
2021/08/12 06:14:40;;;;;;;9.07;8.27;;;;;;;25.17;43.81;101617.97;5079150;28;20173;-77
2021/08/12 06:17:05;;;;;;;8.67;7.87;;;;;;;26.89;40.34;101612.72;5080045;28;20181;-76
2021/08/12 06:19:31;;;;;;;13.43;8.30;;;;;;;25.30;43.62;101621.91;5060712;28;20200;-76
2021/08/12 06:21:56;;;;;;;8.70;7.77;;;;;;;26.77;40.03;101617.78;5060023;28;20189;-77
2021/08/12 06:24:21;;;;;;;7.80;7.10;;;;;;;26.68;40.46;101616.31;5059312;28;20627;-76
2021/08/12 06:26:47;;;;;;;8.60;7.20;;;;;;;26.83;39.87;101617.47;5061267;28;20220;-77
2021/08/12 06:29:12;;;;;;;7.83;7.10;;;;;;;25.28;43.14;101618.41;5062895;28;20250;-78
2021/08/12 06:31:38;;;;;;;10.70;8.07;;;;;;;27.49;38.90;101610.91;5078703;28;20467;-74
2021/08/12 06:34:04;;;;;;;8.63;7.83;;;;;;;27.58;37.77;101612.25;5077395;28;20521;-76
2021/08/12 06:36:31;;;;;;;8.30;7.10;;;;;;;26.98;38.96;101611.44;5078741;28;20513;-76
2021/08/12 06:38:59;;;;;;;8.20;7.50;;;;;;;25.90;40.98;101624.03;5076925;28;20180;-77
2021/08/12 06:41:25;;;;;;;7.97;7.27;;;;;;;24.34;44.82;101625.31;5077283;28;20872;-76
2021/08/12 06:43:50;;;;;;;10.17;7.50;;;;;;;22.91;49.00;101626.97;5073231;28;20447;-78
2021/08/12 06:46:15;;;;;;;7.80;7.20;;;;;;;24.41;45.57;101625.09;5083748;28;20192;-77
2021/08/12 06:48:40;;;;;;;8.30;7.47;;;;;;;24.51;44.65;101618.53;5078772;28;20234;-78
2021/08/12 06:51:06;;;;;;;7.80;7.20;;;;;;;25.65;42.51;101621.47;5060860;28;20494;-75
2021/08/12 06:53:31;;;;;;;8.03;7.40;;;;;;;26.53;40.83;101617.88;5087342;28;20886;-76
2021/08/12 06:55:56;;;;;;;8.57;7.77;;;;;;;26.79;40.19;101611.41;5081306;28;20542;-77
2021/08/12 06:58:22;;;;;;;7.67;7.07;;;;;;;27.19;38.88;101616.75;5094785;28;20264;-77
2021/08/12 07:00:47;;;;;;;7.70;7.10;;;;;;;25.99;41.31;101615.66;5078163;28;20208;-77
2021/08/12 07:03:13;;;;;;;8.33;7.47;;;;;;;24.90;44.19;101623.38;5089843;28;20184;-78
2021/08/12 07:05:38;;;;;;;7.70;7.00;;;;;;;23.77;46.79;101618.28;5082887;28;20181;-76
2021/08/12 07:08:05;;;;;;;7.77;7.17;;;;;;;24.66;45.13;101617.13;5090401;28;20550;-75
2021/08/12 07:10:31;;;;;;;8.30;7.70;;;;;;;25.08;44.16;101618.31;5093240;28;20172;-75
2021/08/12 07:12:56;;;;;;;8.20;7.50;;;;;;;26.54;41.22;101604.44;5075352;28;20474;-76
2021/08/12 07:15:21;;;;;;;8.23;7.43;;;;;;;27.32;39.68;101609.00;5088581;28;20427;-76
2021/08/12 07:17:50;;;;;;;7.80;7.17;;;;;;;28.49;37.59;101608.63;5076286;28;20212;-77
2021/08/12 07:20:15;;;;;;;7.00;6.40;;;;;;;27.98;37.68;101613.00;5076304;28;20195;-75
2021/08/12 07:22:40;;;;;;;10.60;7.23;;;;;;;27.09;39.86;101618.09;5071974;28;20795;-76
2021/08/12 07:25:06;;;;;;;7.73;7.03;;;;;;;25.92;41.97;101616.81;5083554;28;20200;-74
2021/08/12 07:27:31;;;;;;;8.43;7.10;;;;;;;23.93;46.10;101619.53;5076505;28;20205;-76
2021/08/12 07:29:57;;;;;;;12.20;7.43;;;;;;;24.63;45.38;101625.25;5080764;28;20275;-74
2021/08/12 07:32:22;;;;;;;8.83;7.90;;;;;;;26.76;40.74;101616.88;5086333;28;20613;-73
2021/08/12 07:34:48;;;;;;;7.40;6.70;;;;;;;27.46;38.49;101611.94;5070102;28;20221;-73
2021/08/12 07:37:13;;;;;;;7.77;7.10;;;;;;;24.91;44.68;101624.25;5058777;28;20212;-76
2021/08/12 07:39:39;;;;;;;8.10;7.40;;;;;;;26.27;41.91;101621.69;5058603;28;20193;-74
2021/08/12 07:42:04;;;;;;;7.20;6.50;;;;;;;25.35;43.78;101624.41;5067494;28;20234;-74
2021/08/12 07:44:29;;;;;;;7.90;6.53;;;;;;;25.13;44.20;101625.19;5070963;28;20446;-74
2021/08/12 07:46:55;;;;;;;9.27;6.73;;;;;;;25.22;44.34;101624.88;5059308;28;20247;-75
2021/08/12 07:49:20;;;;;;;6.70;6.00;;;;;;;26.12;43.05;101609.84;5058729;28;20181;-81
2021/08/12 07:51:47;;;;;;;8.63;7.00;;;;;;;26.76;40.11;101602.66;5070792;28;20231;-82
2021/08/12 07:54:12;;;;;;;8.07;6.70;;;;;;;26.78;40.78;101607.00;5067670;28;20239;-81
2021/08/12 07:56:38;;;;;;;6.67;6.07;;;;;;;24.29;45.82;101610.38;5058754;28;20447;-82
2021/08/12 07:59:03;;;;;;;6.60;6.10;;;;;;;25.62;44.17;101616.28;5058198;28;20193;-82
2021/08/12 08:01:29;;;;;;;6.97;6.40;;;;;;;24.93;44.66;101617.94;5057979;28;20209;-83
2021/08/12 08:03:56;;;;;;;7.20;6.60;;;;;;;24.56;46.30;101605.91;5060348;28;20200;-84
2021/08/12 08:06:21;;;;;;;7.73;6.97;;;;;;;24.76;45.99;101607.00;5069261;28;20174;-85
2021/08/12 08:08:46;;;;;;;7.50;6.77;;;;;;;24.95;45.26;101617.88;5061391;28;20462;-83
2021/08/12 08:11:15;;;;;;;7.47;6.63;;;;;;;24.67;45.84;101613.56;5057940;28;20577;-83
2021/08/12 08:13:41;;;;;;;8.27;7.57;;;;;;;24.52;46.34;101607.81;5060686;28;20209;-84
2021/08/12 08:16:06;;;;;;;7.00;6.40;;;;;;;26.64;41.68;101606.69;5066837;28;20451;-83
2021/08/12 08:18:32;;;;;;;7.53;6.83;;;;;;;28.02;39.13;101601.22;5058512;28;20447;-81
2021/08/12 08:20:57;;;;;;;7.53;6.87;;;;;;;27.60;39.46;101603.22;5060054;28;20190;-81
2021/08/12 08:23:23;;;;;;;7.93;6.43;;;;;;;29.65;35.81;101599.69;5067550;28;20233;-81
2021/08/12 08:25:48;;;;;;;7.50;6.80;;;;;;;28.74;37.65;101593.97;5066916;28;20574;-82
2021/08/12 08:28:13;;;;;;;7.20;6.70;;;;;;;27.98;38.52;101611.19;5072446;28;20188;-79
2021/08/12 08:30:39;;;;;;;6.70;6.10;;;;;;;28.16;38.85;101612.09;5065728;28;20240;-82
2021/08/12 08:33:05;;;;;;;6.80;6.20;;;;;;;30.76;33.80;101602.16;5074835;28;20259;-78
2021/08/12 08:35:30;;;;;;;6.77;6.17;;;;;;;29.37;36.65;101609.31;5075919;28;20179;-81
2021/08/12 08:37:57;;;;;;;9.23;6.57;;;;;;;31.61;32.90;101608.50;5057807;28;20555;-82
2021/08/12 08:40:23;;;;;;;6.47;5.93;;;;;;;30.02;35.25;101613.72;5065529;28;20181;-81
2021/08/12 08:42:48;;;;;;;6.40;5.70;;;;;;;31.96;32.38;101599.00;5076856;28;20443;-81
2021/08/12 08:45:15;;;;;;;7.37;5.97;;;;;;;31.68;32.80;101604.41;5077613;28;20188;-80
2021/08/12 08:47:41;;;;;;;6.30;5.70;;;;;;;31.24;33.26;101608.13;5058890;28;20178;-83
2021/08/12 08:50:06;;;;;;;6.50;5.90;;;;;;;32.16;31.82;101597.69;5057900;28;20720;-76
2021/08/12 08:52:32;;;;;;;6.17;5.67;;;;;;;31.96;32.41;101597.19;5067745;28;20231;-76
2021/08/12 08:54:58;;;;;;;6.73;6.00;;;;;;;31.55;32.67;101596.25;5077346;28;20451;-78
2021/08/12 08:57:23;;;;;;;7.00;6.40;;;;;;;31.68;32.42;101593.63;5076062;28;20439;-76
2021/08/12 08:59:48;;;;;;;6.20;5.60;;;;;;;33.23;30.42;101594.66;5062547;28;20254;-78
2021/08/12 09:02:14;;;;;;;6.53;5.93;;;;;;;30.41;34.12;101598.84;5061077;28;20275;-79
2021/08/12 09:04:40;;;;;;;6.07;5.63;;;;;;;32.74;30.87;101598.19;5067994;28;20187;-78
2021/08/12 09:07:12;;;;;;;5.73;5.33;;;;;;;32.56;32.07;101598.47;5066214;28;20189;-78
2021/08/12 09:09:38;;;;;;;6.37;5.77;;;;;;;31.78;32.19;101584.94;5044542;28;20177;-78
2021/08/12 09:12:05;;;;;;;5.93;5.53;;;;;;;30.23;34.83;101600.81;5066963;28;20458;-78
2021/08/12 09:14:41;;;;;;;6.43;5.83;;;;;;;32.17;31.48;101600.25;5065405;28;20205;-78
2021/08/12 09:17:19;;;;;;;5.80;5.30;;;;;;;33.08;29.65;101593.03;5062989;28;20450;-77
2021/08/12 09:20:09;;;;;;;5.73;5.27;;;;;;;32.98;30.52;101581.19;5060664;28;20415;-76
2021/08/12 09:22:49;;;;;;;6.00;5.40;;;;;;;32.81;30.62;101588.66;5066803;28;20681;-76
2021/08/12 09:25:16;;;;;;;8.07;5.70;;;;;;;31.84;32.16;101589.91;5074468;28;20448;-80
2021/08/12 09:27:42;;;;;;;5.80;5.30;;;;;;;31.75;32.11;101591.38;5065785;28;20442;-77
2021/08/12 09:30:09;;;;;;;5.77;5.20;;;;;;;32.12;32.27;101583.50;5072094;28;20863;-77
2021/08/12 09:32:46;;;;;;;6.37;5.77;;;;;;;33.01;29.85;101587.22;5077393;28;20248;-76
2021/08/12 09:35:11;;;;;;;6.40;5.80;;;;;;;34.46;28.68;101574.69;5069530;28;20710;-74
2021/08/12 09:37:37;;;;;;;6.27;5.73;;;;;;;31.08;32.83;101589.41;5073501;28;20439;-77
2021/08/12 09:40:03;;;;;;;6.03;5.37;;;;;;;31.83;33.34;101589.03;5073479;28;20185;-77
2021/08/12 09:42:29;;;;;;;6.07;5.50;;;;;;;32.51;31.29;101580.88;5070071;28;20176;-77
2021/08/12 09:44:54;;;;;;;6.27;5.77;;;;;;;33.21;29.86;101583.06;5076717;28;20477;-77
2021/08/12 09:47:19;;;;;;;6.03;5.53;;;;;;;32.34;31.22;101576.66;5065333;28;20188;-77
2021/08/12 09:49:45;;;;;;;6.10;5.60;;;;;;;33.18;29.75;101585.13;5068847;28;20173;-75
2021/08/12 09:52:17;;;;;;;6.40;5.90;;;;;;;33.83;28.50;101577.69;5090377;28;20204;-77
2021/08/12 09:54:43;;;;;;;6.20;5.70;;;;;;;33.45;29.73;101582.28;5100584;28;20204;-77
2021/08/12 09:57:17;;;;;;;5.63;5.13;;;;;;;33.93;29.10;101580.56;5096244;28;20447;-76
2021/08/12 09:59:50;;;;;;;5.87;5.43;;;;;;;32.23;31.18;101586.38;5073022;28;20493;-77
2021/08/12 10:02:16;;;;;;;7.10;5.87;;;;;;;33.16;29.58;101584.38;5059845;28;20448;-77
2021/08/12 10:04:41;;;;;;;6.30;5.80;;;;;;;31.99;31.67;101585.28;5059904;28;20806;-80
2021/08/12 10:07:07;;;;;;;5.90;5.50;;;;;;;33.23;29.78;101586.53;5060892;28;20419;-81
2021/08/12 10:09:40;;;;;;;5.93;5.43;;;;;;;31.70;32.37;101578.22;5078764;28;20558;-76
2021/08/12 10:12:06;;;;;;;6.30;5.80;;;;;;;32.04;31.76;101575.94;5079809;28;20212;-75
2021/08/12 10:14:31;;;;;;;6.70;6.20;;;;;;;34.26;27.90;101571.66;5071296;28;20482;-76
2021/08/12 10:16:57;;;;;;;6.83;6.13;;;;;;;32.01;31.63;101584.22;5060557;28;20447;-76
2021/08/12 10:19:22;;;;;;;7.00;6.40;;;;;;;30.71;34.11;101573.72;5058783;28;20216;-77
2021/08/12 10:21:48;;;;;;;6.30;5.80;;;;;;;32.00;31.71;101573.53;5059688;28;20260;-76
2021/08/12 10:24:14;;;;;;;6.40;5.90;;;;;;;32.79;30.57;101565.47;5058377;28;20229;-77
2021/08/12 10:26:45;;;;;;;7.10;6.50;;;;;;;32.18;31.36;101571.47;5059342;28;20220;-76
2021/08/12 10:29:12;;;;;;;6.27;5.80;;;;;;;33.78;28.99;101567.22;5059623;28;20820;-79
2021/08/12 10:31:38;;;;;;;7.10;6.37;;;;;;;31.83;31.85;101577.41;5059014;28;20806;-77
2021/08/12 10:34:04;;;;;;;6.80;6.30;;;;;;;29.99;34.94;101580.78;5059102;28;20440;-77
2021/08/12 10:36:30;;;;;;;8.37;6.77;;;;;;;31.11;32.89;101575.75;5059583;28;20837;-78
2021/08/12 10:38:55;;;;;;;7.03;6.53;;;;;;;31.37;32.85;101570.50;5059200;28;20451;-76
2021/08/12 10:41:21;;;;;;;6.87;6.27;;;;;;;30.80;33.27;101571.44;5059086;28;20166;-76
2021/08/12 10:43:51;;;;;;;7.50;6.90;;;;;;;29.92;35.74;101574.91;5058425;28;20199;-76
2021/08/12 10:46:31;;;;;;;7.70;7.00;;;;;;;30.40;35.06;101567.53;5058068;28;20439;-77
2021/08/12 10:49:29;;;;;;;7.10;6.50;;;;;;;29.02;37.68;101570.97;5058577;28;20470;-76
2021/08/12 10:52:04;;;;;;;7.77;7.07;;;;;;;29.98;35.86;101562.91;5074782;28;20418;-75
2021/08/12 10:54:32;;;;;;;8.10;7.43;;;;;;;30.45;34.05;101545.75;5099144;28;20432;-75
2021/08/12 10:57:12;;;;;;;7.90;7.30;;;;;;;29.29;36.11;101562.38;5097609;28;20414;-75
2021/08/12 10:59:37;;;;;;;7.93;7.10;;;;;;;29.80;34.23;101554.09;5078473;28;20493;-75
2021/08/12 11:02:29;;;;;;;7.83;7.10;;;;;;;29.97;35.62;101558.47;5078551;28;20411;-75
2021/08/12 11:04:56;;;;;;;7.23;6.73;;;;;;;31.05;32.70;101557.28;5078298;28;20203;-74
2021/08/12 11:07:39;;;;;;;7.70;7.00;;;;;;;30.15;34.56;101553.84;5077762;28;20431;-78
2021/08/12 11:10:15;;;;;;;8.33;7.57;;;;;;;30.28;33.99;101551.25;5078257;28;20443;-77
2021/08/12 11:12:52;;;;;;;7.60;6.90;;;;;;;30.19;34.88;101552.69;5078097;28;20482;-80
2021/08/12 11:15:40;;;;;;;7.43;6.83;;;;;;;30.09;34.11;101549.69;5078293;28;20437;-74
2021/08/12 11:18:08;;;;;;;7.43;6.73;;;;;;;30.94;33.18;101551.69;5077162;28;20415;-79